Time;durP1;ratioP1;P1;durP2;ratioP2;P2;SDS_P1;SDS_P2;PMS_P1;PMS_P2;Temp;Humidity;BMP_temperature;BMP_pressure;BME280_temperature;BME280_humidity;BME280_pressure;Samples;Min_cycle;Max_cycle;Signal;HPM_P1;HPM_P2
2022/01/19 00:01:38;;;;;;;55.67;18.98;;;;;;;;;;5050036;28;20036;-58
2022/01/19 00:04:08;;;;;;;56.55;19.30;;;;;;;;;;5048280;28;20032;-58
2022/01/19 00:06:33;;;;;;;59.15;19.67;;;;;;;;;;5031567;28;20037;-59
2022/01/19 00:09:02;;;;;;;55.83;17.35;;;;;;;;;;5051580;28;20081;-58
2022/01/19 00:11:27;;;;;;;58.17;18.83;;;;;;;;;;5034081;28;20028;-59
2022/01/19 00:13:55;;;;;;;55.97;17.42;;;;;;;;;;5050940;28;20539;-59
2022/01/19 00:16:24;;;;;;;66.15;17.83;;;;;;;;;;5051867;28;20021;-59
2022/01/19 00:18:52;;;;;;;61.83;19.10;;;;;;;;;;5019940;28;20309;-59
2022/01/19 00:21:20;;;;;;;53.42;17.58;;;;;;;;;;5034571;28;20081;-59
2022/01/19 00:23:48;;;;;;;49.10;16.05;;;;;;;;;;5007264;28;20573;-59
2022/01/19 00:26:15;;;;;;;58.40;16.55;;;;;;;;;;5016428;28;20067;-60
2022/01/19 00:28:43;;;;;;;58.75;18.05;;;;;;;;;;5014721;28;21036;-60
2022/01/19 00:31:09;;;;;;;49.38;15.13;;;;;;;;;;5005383;28;20645;-60
2022/01/19 00:33:34;;;;;;;49.35;15.32;;;;;;;;;;5011905;28;20170;-61
2022/01/19 00:36:00;;;;;;;52.35;15.02;;;;;;;;;;4973081;28;20036;-59
2022/01/19 00:38:30;;;;;;;56.92;17.15;;;;;;;;;;4999128;28;20043;-59
2022/01/19 00:41:02;;;;;;;53.15;15.73;;;;;;;;;;5029372;28;21017;-59
2022/01/19 00:43:35;;;;;;;48.45;14.40;;;;;;;;;;5015735;28;20924;-59
2022/01/19 00:46:03;;;;;;;48.47;16.25;;;;;;;;;;5005009;28;20032;-59
2022/01/19 00:48:32;;;;;;;45.92;14.80;;;;;;;;;;5029319;28;20527;-59
2022/01/19 00:50:57;;;;;;;52.65;15.88;;;;;;;;;;5027498;28;20047;-59
2022/01/19 00:53:28;;;;;;;52.22;15.00;;;;;;;;;;5012092;28;20029;-59
2022/01/19 00:55:54;;;;;;;54.03;15.40;;;;;;;;;;5028551;28;20612;-59
2022/01/19 00:58:19;;;;;;;62.65;17.70;;;;;;;;;;5027389;28;20029;-59
2022/01/19 01:00:47;;;;;;;52.90;16.05;;;;;;;;;;4999230;28;20471;-59
2022/01/19 01:03:18;;;;;;;56.22;15.93;;;;;;;;;;5011598;28;20026;-59
2022/01/19 01:05:44;;;;;;;53.50;17.13;;;;;;;;;;5014327;28;20041;-60
2022/01/19 01:08:12;;;;;;;57.67;19.00;;;;;;;;;;5014112;28;20108;-59
2022/01/19 01:10:42;;;;;;;55.05;17.20;;;;;;;;;;5008534;28;20444;-59
2022/01/19 01:16:02;;;;;;;52.40;17.05;;;;;;;;;;5026120;28;20033;-59
2022/01/19 01:18:30;;;;;;;50.03;17.52;;;;;;;;;;5011995;28;20264;-59
2022/01/19 01:20:57;;;;;;;54.22;15.95;;;;;;;;;;5028640;28;20028;-59
2022/01/19 01:23:26;;;;;;;60.63;17.75;;;;;;;;;;5026703;28;20040;-59
2022/01/19 01:25:54;;;;;;;54.33;19.48;;;;;;;;;;5027779;28;20033;-59
2022/01/19 01:28:20;;;;;;;58.35;18.95;;;;;;;;;;5024260;28;20048;-60
2022/01/19 01:30:48;;;;;;;59.42;19.52;;;;;;;;;;5016256;28;20049;-59
2022/01/19 01:33:13;;;;;;;64.40;20.35;;;;;;;;;;5028232;28;20068;-59
2022/01/19 01:35:41;;;;;;;61.42;19.95;;;;;;;;;;5027712;28;20033;-59
2022/01/19 01:38:09;;;;;;;67.15;18.58;;;;;;;;;;5003332;28;21087;-59
2022/01/19 01:40:38;;;;;;;58.20;20.02;;;;;;;;;;5030068;28;20016;-59
2022/01/19 01:43:07;;;;;;;63.92;20.55;;;;;;;;;;5025828;28;20059;-59
2022/01/19 01:45:35;;;;;;;59.13;18.65;;;;;;;;;;5028700;28;20086;-59
2022/01/19 01:48:08;;;;;;;64.80;19.35;;;;;;;;;;5027165;28;20187;-61
2022/01/19 01:53:26;;;;;;;49.97;17.25;;;;;;;;;;5028614;28;20037;-60
2022/01/19 01:55:59;;;;;;;70.82;18.65;;;;;;;;;;5027531;28;20031;-59
2022/01/19 01:58:25;;;;;;;68.13;19.33;;;;;;;;;;5027651;28;20033;-59
2022/01/19 02:00:51;;;;;;;62.78;18.23;;;;;;;;;;5029370;28;20041;-59
2022/01/19 02:03:19;;;;;;;52.15;17.38;;;;;;;;;;5024810;28;20410;-61
2022/01/19 02:23:34;;;;;;;75.97;19.92;;;;;;;;;;5034614;28;20029;-59
2022/01/19 02:26:09;;;;;;;79.68;20.00;;;;;;;;;;5026294;28;20381;-61
2022/01/19 02:40:14;;;;;;;86.07;22.42;;;;;;;;;;5048324;28;20074;-60
2022/01/19 02:42:53;;;;;;;62.38;19.67;;;;;;;;;;5014142;28;20476;-61
2022/01/19 02:50:37;;;;;;;78.18;22.80;;;;;;;;;;5020931;28;20041;-60
2022/01/19 02:53:04;;;;;;;75.60;24.92;;;;;;;;;;5021690;28;20714;-59
2022/01/19 02:55:32;;;;;;;83.10;23.67;;;;;;;;;;5030371;28;20039;-59
2022/01/19 02:57:59;;;;;;;84.93;23.00;;;;;;;;;;5044382;28;20066;-59
2022/01/19 03:11:12;;;;;;;90.28;24.63;;;;;;;;;;5038363;28;20036;-59
2022/01/19 03:13:40;;;;;;;94.22;23.77;;;;;;;;;;5046240;28;20032;-60
2022/01/19 03:16:08;;;;;;;82.75;21.98;;;;;;;;;;5026685;28;20039;-59
2022/01/19 03:18:34;;;;;;;83.78;23.92;;;;;;;;;;5048680;28;20055;-60
2022/01/19 03:21:02;;;;;;;74.15;21.75;;;;;;;;;;5028187;28;20036;-59
2022/01/19 03:23:33;;;;;;;96.38;24.42;;;;;;;;;;5047236;28;20028;-60
2022/01/19 03:26:06;;;;;;;98.63;22.30;;;;;;;;;;5014645;28;20479;-59
2022/01/19 03:28:36;;;;;;;93.80;21.88;;;;;;;;;;5027834;28;20131;-60
2022/01/19 03:31:04;;;;;;;83.75;21.75;;;;;;;;;;5026718;28;20040;-60
2022/01/19 03:33:32;;;;;;;93.38;23.25;;;;;;;;;;5013421;28;20651;-60
2022/01/19 03:35:57;;;;;;;91.57;22.20;;;;;;;;;;5029884;28;20063;-60
2022/01/19 03:38:26;;;;;;;87.28;22.17;;;;;;;;;;5043765;28;20575;-60
2022/01/19 03:40:53;;;;;;;82.03;20.38;;;;;;;;;;5025822;28;20049;-60
2022/01/19 03:43:21;;;;;;;76.15;18.63;;;;;;;;;;5045150;28;20513;-60
2022/01/19 03:45:52;;;;;;;88.55;19.92;;;;;;;;;;5047412;28;20062;-61
2022/01/19 03:50:49;;;;;;;88.53;20.65;;;;;;;;;;5046166;28;20207;-59
2022/01/19 03:53:19;;;;;;;62.92;16.45;;;;;;;;;;5044977;28;20256;-58
2022/01/19 03:55:45;;;;;;;85.50;20.33;;;;;;;;;;5037834;28;20041;-61
2022/01/19 03:58:15;;;;;;;75.35;18.95;;;;;;;;;;5016502;28;20020;-60
2022/01/19 04:00:46;;;;;;;91.72;19.60;;;;;;;;;;5012898;28;20037;-60
2022/01/19 04:03:19;;;;;;;81.60;18.52;;;;;;;;;;5013931;28;20033;-59
2022/01/19 04:08:18;;;;;;;78.80;19.90;;;;;;;;;;5031808;28;20178;-59
2022/01/19 04:10:45;;;;;;;69.35;17.00;;;;;;;;;;5026894;28;20535;-60
2022/01/19 04:13:26;;;;;;;72.68;18.52;;;;;;;;;;5013394;28;20051;-61
2022/01/19 04:15:55;;;;;;;74.32;18.25;;;;;;;;;;5028543;28;20544;-59
2022/01/19 04:18:23;;;;;;;66.22;16.45;;;;;;;;;;5044431;28;20500;-59
2022/01/19 04:20:51;;;;;;;71.63;17.42;;;;;;;;;;5047315;28;20045;-59
2022/01/19 04:23:21;;;;;;;59.42;17.08;;;;;;;;;;5015487;28;20123;-59
2022/01/19 04:29:33;;;;;;;63.20;17.38;;;;;;;;;;5046812;28;20187;-59
2022/01/19 04:35:55;;;;;;;81.22;19.02;;;;;;;;;;5051028;28;20204;-60
2022/01/19 05:03:37;;;;;;;66.13;16.90;;;;;;;;;;5048469;28;20036;-59
2022/01/19 05:06:09;;;;;;;61.67;17.95;;;;;;;;;;5049022;28;20049;-60
2022/01/19 05:13:52;;;;;;;73.80;16.95;;;;;;;;;;5048603;28;20032;-60
2022/01/19 05:16:24;;;;;;;65.63;17.95;;;;;;;;;;5043695;28;20035;-59
2022/01/19 05:18:50;;;;;;;51.60;16.67;;;;;;;;;;5023538;28;20028;-60
2022/01/19 05:21:16;;;;;;;51.45;16.15;;;;;;;;;;5027824;28;20121;-59
2022/01/19 05:23:42;;;;;;;75.45;17.48;;;;;;;;;;5033479;28;20029;-60
2022/01/19 05:26:08;;;;;;;65.70;16.83;;;;;;;;;;5048848;28;20522;-59
2022/01/19 05:28:33;;;;;;;47.75;16.08;;;;;;;;;;5044941;28;20032;-59
2022/01/19 05:31:03;;;;;;;51.70;17.23;;;;;;;;;;5043942;28;20058;-59
2022/01/19 05:33:33;;;;;;;56.10;15.60;;;;;;;;;;5029684;28;20268;-59
2022/01/19 05:36:01;;;;;;;69.15;17.60;;;;;;;;;;5047776;28;20036;-60
2022/01/19 05:42:13;;;;;;;64.70;16.73;;;;;;;;;;5045837;28;20055;-60
2022/01/19 05:44:40;;;;;;;67.53;18.10;;;;;;;;;;5047755;28;20036;-60
2022/01/19 05:47:06;;;;;;;54.35;16.00;;;;;;;;;;5044882;28;20025;-61
2022/01/19 05:49:34;;;;;;;61.05;16.10;;;;;;;;;;5044541;28;20056;-60
2022/01/19 05:52:04;;;;;;;48.25;15.55;;;;;;;;;;5047435;28;20036;-60
2022/01/19 05:54:30;;;;;;;60.45;15.85;;;;;;;;;;5028066;28;20037;-61
2022/01/19 05:56:55;;;;;;;67.47;18.17;;;;;;;;;;5027306;28;20070;-60
2022/01/19 05:59:25;;;;;;;65.05;17.95;;;;;;;;;;5028351;28;20088;-60
2022/01/19 06:01:51;;;;;;;51.42;17.55;;;;;;;;;;5030555;28;20024;-60
2022/01/19 06:04:16;;;;;;;49.85;16.35;;;;;;;;;;5046634;28;21918;-60
2022/01/19 06:06:42;;;;;;;60.17;16.75;;;;;;;;;;5027925;28;20051;-62
2022/01/19 06:09:22;;;;;;;57.22;16.08;;;;;;;;;;5048650;28;20406;-60
2022/01/19 06:11:48;;;;;;;59.97;17.27;;;;;;;;;;5015829;28;20063;-59
2022/01/19 06:14:18;;;;;;;54.08;17.48;;;;;;;;;;5014728;28;20036;-60
2022/01/19 06:16:47;;;;;;;55.90;15.65;;;;;;;;;;5028159;28;20103;-60
2022/01/19 06:19:18;;;;;;;59.17;16.55;;;;;;;;;;5013491;28;20074;-59
2022/01/19 06:21:45;;;;;;;56.08;16.25;;;;;;;;;;5029263;28;20036;-59
2022/01/19 06:24:15;;;;;;;52.20;16.70;;;;;;;;;;5047738;28;20029;-59
2022/01/19 06:26:43;;;;;;;59.22;18.27;;;;;;;;;;5003362;28;20044;-59
2022/01/19 06:29:09;;;;;;;67.47;18.13;;;;;;;;;;5047172;28;20052;-59
2022/01/19 06:31:41;;;;;;;64.50;17.48;;;;;;;;;;5028229;28;20044;-59
2022/01/19 06:34:07;;;;;;;63.15;20.20;;;;;;;;;;5029854;28;20039;-59
2022/01/19 06:36:33;;;;;;;65.10;19.05;;;;;;;;;;5046503;28;20032;-59
2022/01/19 06:38:59;;;;;;;65.20;18.45;;;;;;;;;;5049278;28;20064;-59
2022/01/19 06:41:24;;;;;;;64.50;17.52;;;;;;;;;;5045952;28;20155;-60
2022/01/19 06:43:52;;;;;;;55.30;18.00;;;;;;;;;;5029698;28;20198;-59
2022/01/19 06:46:23;;;;;;;56.58;16.95;;;;;;;;;;5028141;28;20049;-60
2022/01/19 06:48:50;;;;;;;64.53;17.70;;;;;;;;;;5045274;28;20032;-60
2022/01/19 06:51:16;;;;;;;65.20;18.08;;;;;;;;;;5011487;28;20028;-60
2022/01/19 06:53:46;;;;;;;73.22;19.83;;;;;;;;;;5031921;28;20033;-60
2022/01/19 06:56:15;;;;;;;59.13;18.38;;;;;;;;;;5045865;28;20028;-60
2022/01/19 06:58:45;;;;;;;65.05;18.70;;;;;;;;;;5046444;28;20628;-59
2022/01/19 07:01:11;;;;;;;51.67;15.32;;;;;;;;;;5019644;28;20051;-59
2022/01/19 07:03:39;;;;;;;60.47;17.67;;;;;;;;;;5014993;28;20779;-59
2022/01/19 07:06:05;;;;;;;53.35;17.60;;;;;;;;;;5024634;28;20221;-59
2022/01/19 07:08:30;;;;;;;50.50;17.02;;;;;;;;;;5046765;28;20307;-59
2022/01/19 07:10:56;;;;;;;60.60;18.58;;;;;;;;;;5045209;28;20028;-59
2022/01/19 07:13:24;;;;;;;55.72;17.92;;;;;;;;;;5044654;28;20751;-59
2022/01/19 07:15:50;;;;;;;61.42;17.73;;;;;;;;;;5047759;28;20036;-60
2022/01/19 07:18:16;;;;;;;53.45;18.20;;;;;;;;;;5047687;28;20028;-60
2022/01/19 07:20:42;;;;;;;66.38;17.35;;;;;;;;;;5046769;28;20033;-59
2022/01/19 07:23:11;;;;;;;57.88;18.77;;;;;;;;;;5028791;28;20042;-59
2022/01/19 07:25:39;;;;;;;62.03;17.85;;;;;;;;;;5027166;28;20078;-59
2022/01/19 07:28:10;;;;;;;50.25;18.30;;;;;;;;;;5047684;28;20497;-59
2022/01/19 07:30:36;;;;;;;66.32;19.40;;;;;;;;;;5047600;28;20546;-59
2022/01/19 07:33:01;;;;;;;60.92;17.85;;;;;;;;;;5042810;28;20035;-59
2022/01/19 07:35:29;;;;;;;64.45;18.20;;;;;;;;;;5004467;28;20037;-61
2022/01/19 07:37:55;;;;;;;56.72;16.50;;;;;;;;;;5045042;28;20097;-59
2022/01/19 07:40:21;;;;;;;66.18;20.25;;;;;;;;;;5046603;28;20121;-59
2022/01/19 07:42:46;;;;;;;64.90;17.85;;;;;;;;;;5027446;28;20066;-59
2022/01/19 07:45:12;;;;;;;57.63;18.13;;;;;;;;;;5042646;28;20036;-60
2022/01/19 07:47:44;;;;;;;58.53;17.42;;;;;;;;;;5029739;28;20036;-62
2022/01/19 07:50:11;;;;;;;53.70;17.52;;;;;;;;;;5029637;28;20040;-59
2022/01/19 07:52:37;;;;;;;63.08;19.52;;;;;;;;;;5044212;28;20051;-60
2022/01/19 07:55:03;;;;;;;64.20;18.83;;;;;;;;;;5028675;28;20147;-60
2022/01/19 07:57:28;;;;;;;54.35;18.02;;;;;;;;;;5010721;28;20757;-60
2022/01/19 07:59:53;;;;;;;67.95;18.88;;;;;;;;;;5030448;28;20047;-60
2022/01/19 08:02:19;;;;;;;64.57;19.50;;;;;;;;;;5027564;28;20024;-61
2022/01/19 08:04:47;;;;;;;62.78;19.67;;;;;;;;;;5028313;28;20037;-59
2022/01/19 08:07:12;;;;;;;69.32;17.70;;;;;;;;;;5027840;28;20981;-60
2022/01/19 08:09:40;;;;;;;65.20;19.20;;;;;;;;;;5035499;28;20033;-60
2022/01/19 08:12:10;;;;;;;67.80;20.95;;;;;;;;;;5017024;28;20028;-61
2022/01/19 08:14:40;;;;;;;55.83;19.40;;;;;;;;;;5049104;28;20036;-60
2022/01/19 08:17:05;;;;;;;53.47;18.33;;;;;;;;;;5031699;28;20054;-60
2022/01/19 08:19:33;;;;;;;56.00;19.05;;;;;;;;;;5040599;28;20543;-58
2022/01/19 08:22:01;;;;;;;53.53;18.58;;;;;;;;;;5048792;28;20036;-59
2022/01/19 08:24:26;;;;;;;71.57;20.98;;;;;;;;;;5046434;28;20108;-59
2022/01/19 08:26:54;;;;;;;61.15;19.83;;;;;;;;;;5016182;28;20032;-59
2022/01/19 08:29:22;;;;;;;52.40;17.88;;;;;;;;;;5014773;28;20572;-59
2022/01/19 08:31:50;;;;;;;61.33;19.38;;;;;;;;;;5048303;28;20125;-58
2022/01/19 08:34:18;;;;;;;78.63;22.77;;;;;;;;;;5028571;28;20720;-60
2022/01/19 08:36:46;;;;;;;68.97;20.15;;;;;;;;;;5028766;28;20127;-59
2022/01/19 08:39:14;;;;;;;76.65;22.20;;;;;;;;;;5016080;28;20047;-60
2022/01/19 08:41:40;;;;;;;60.50;19.27;;;;;;;;;;5033118;28;20352;-60
2022/01/19 08:44:08;;;;;;;61.60;18.92;;;;;;;;;;5030715;28;20383;-60
2022/01/19 08:46:37;;;;;;;55.90;19.77;;;;;;;;;;5048584;28;20051;-59
2022/01/19 08:49:05;;;;;;;61.90;20.67;;;;;;;;;;5050510;28;20145;-59
2022/01/19 08:51:30;;;;;;;68.18;20.17;;;;;;;;;;5032353;28;20123;-59
2022/01/19 08:53:56;;;;;;;57.20;19.17;;;;;;;;;;5029969;28;20101;-60
2022/01/19 08:56:21;;;;;;;63.55;19.75;;;;;;;;;;5016302;28;20041;-60
2022/01/19 08:58:47;;;;;;;75.68;20.55;;;;;;;;;;5049435;28;21022;-59
2022/01/19 09:01:13;;;;;;;60.78;20.70;;;;;;;;;;5031887;28;20041;-59
2022/01/19 09:03:43;;;;;;;69.40;22.27;;;;;;;;;;5048889;28;20098;-59
2022/01/19 09:06:09;;;;;;;57.30;19.80;;;;;;;;;;5031046;28;20033;-59
2022/01/19 09:08:35;;;;;;;49.65;20.10;;;;;;;;;;5029193;28;21263;-59
2022/01/19 09:11:03;;;;;;;67.85;21.67;;;;;;;;;;5048779;28;20051;-59
2022/01/19 09:13:31;;;;;;;56.67;20.73;;;;;;;;;;5032049;28;20021;-59
2022/01/19 09:15:56;;;;;;;62.58;19.58;;;;;;;;;;5049299;28;20036;-59
2022/01/19 09:18:25;;;;;;;55.50;19.20;;;;;;;;;;5029413;28;20032;-59
2022/01/19 09:20:53;;;;;;;55.38;19.30;;;;;;;;;;5033438;28;20032;-59
2022/01/19 09:23:18;;;;;;;57.65;20.92;;;;;;;;;;5031471;28;20057;-59
2022/01/19 09:25:44;;;;;;;58.53;20.27;;;;;;;;;;5048827;28;20032;-60
2022/01/19 09:28:12;;;;;;;55.58;18.88;;;;;;;;;;5045390;28;20030;-60
2022/01/19 09:30:45;;;;;;;62.42;20.85;;;;;;;;;;5029402;28;20051;-61
2022/01/19 09:33:17;;;;;;;52.47;19.92;;;;;;;;;;5025728;28;20071;-59
2022/01/19 09:38:26;;;;;;;56.72;18.75;;;;;;;;;;5048086;28;19912;-60
2022/01/19 09:40:58;;;;;;;62.00;20.02;;;;;;;;;;5028550;28;20044;-61
2022/01/19 09:43:26;;;;;;;56.72;19.52;;;;;;;;;;5027246;28;20554;-59
2022/01/19 09:45:56;;;;;;;64.95;21.67;;;;;;;;;;5013649;28;20032;-59
2022/01/19 09:48:23;;;;;;;62.78;20.02;;;;;;;;;;5048269;28;20040;-58
2022/01/19 09:50:48;;;;;;;60.80;20.08;;;;;;;;;;5046231;28;20043;-59
2022/01/19 09:53:16;;;;;;;62.17;19.58;;;;;;;;;;5014952;28;20123;-59
2022/01/19 09:55:47;;;;;;;58.58;20.38;;;;;;;;;;5029625;28;20045;-59
2022/01/19 09:58:18;;;;;;;65.93;22.67;;;;;;;;;;5044658;28;20030;-59
2022/01/19 10:00:46;;;;;;;59.97;21.35;;;;;;;;;;5046459;28;20031;-60
2022/01/19 10:03:28;;;;;;;66.22;20.85;;;;;;;;;;5030675;28;20029;-61
2022/01/19 10:05:55;;;;;;;55.33;20.88;;;;;;;;;;5030509;28;20033;-61
2022/01/19 10:08:33;;;;;;;59.80;21.13;;;;;;;;;;5031148;28;20028;-59
2022/01/19 10:11:09;;;;;;;61.60;20.63;;;;;;;;;;5030870;28;20949;-60
2022/01/19 10:19:25;;;;;;;58.97;21.13;;;;;;;;;;5030754;28;20032;-59
2022/01/19 10:21:58;;;;;;;69.10;22.55;;;;;;;;;;5016223;28;20098;-60
2022/01/19 10:24:40;;;;;;;70.35;22.08;;;;;;;;;;5032291;28;20724;-59
2022/01/19 10:27:23;;;;;;;74.10;23.73;;;;;;;;;;5046365;28;20029;-58
2022/01/19 10:29:50;;;;;;;63.00;21.50;;;;;;;;;;5047011;28;20074;-59
2022/01/19 10:32:18;;;;;;;62.97;22.75;;;;;;;;;;5026968;28;20079;-59
2022/01/19 10:34:46;;;;;;;61.30;22.27;;;;;;;;;;5014560;28;20039;-60
2022/01/19 10:37:23;;;;;;;66.28;22.90;;;;;;;;;;5043275;28;20032;-59
2022/01/19 10:39:54;;;;;;;70.75;23.38;;;;;;;;;;5025876;28;20032;-59
2022/01/19 10:42:23;;;;;;;69.65;24.33;;;;;;;;;;5044389;28;20093;-59
2022/01/19 10:44:48;;;;;;;67.38;24.13;;;;;;;;;;5043392;28;20130;-60
2022/01/19 10:47:19;;;;;;;66.68;23.25;;;;;;;;;;5026153;28;21558;-58
2022/01/19 10:49:47;;;;;;;65.22;23.40;;;;;;;;;;5044876;28;20163;-59
2022/01/19 10:52:31;;;;;;;64.88;22.83;;;;;;;;;;5045830;28;20151;-58
2022/01/19 10:55:01;;;;;;;66.55;23.73;;;;;;;;;;5045072;28;20473;-59
2022/01/19 10:57:27;;;;;;;75.72;24.98;;;;;;;;;;5026893;28;20139;-60
2022/01/19 11:00:13;;;;;;;64.28;24.63;;;;;;;;;;5026257;28;20033;-59
2022/01/19 11:02:40;;;;;;;67.43;24.42;;;;;;;;;;5045532;28;20057;-60
2022/01/19 11:05:08;;;;;;;66.88;23.63;;;;;;;;;;5020165;28;20032;-59
2022/01/19 11:07:35;;;;;;;53.75;21.05;;;;;;;;;;5045982;28;20036;-59
2022/01/19 11:10:29;;;;;;;71.68;25.10;;;;;;;;;;5046630;28;20059;-59
2022/01/19 11:12:57;;;;;;;62.72;22.83;;;;;;;;;;5028419;28;20950;-59
2022/01/19 11:15:25;;;;;;;67.57;23.38;;;;;;;;;;5021193;28;20062;-59
2022/01/19 11:17:53;;;;;;;63.53;23.45;;;;;;;;;;5044484;28;20021;-59
2022/01/19 11:20:23;;;;;;;61.20;23.67;;;;;;;;;;5002838;28;20059;-59
2022/01/19 11:23:07;;;;;;;63.88;21.88;;;;;;;;;;5045818;28;20384;-59
2022/01/19 11:25:47;;;;;;;65.30;23.83;;;;;;;;;;5046496;28;20040;-60
2022/01/19 11:28:26;;;;;;;69.75;24.65;;;;;;;;;;5020135;28;20429;-60
2022/01/19 11:30:53;;;;;;;64.22;22.67;;;;;;;;;;5028560;28;20134;-59
2022/01/19 11:33:29;;;;;;;56.65;22.25;;;;;;;;;;5016297;28;20040;-61
2022/01/19 11:35:57;;;;;;;54.55;22.40;;;;;;;;;;5029640;28;20537;-59
2022/01/19 11:38:31;;;;;;;61.78;22.98;;;;;;;;;;5030740;28;20654;-59
2022/01/19 11:41:02;;;;;;;60.70;21.55;;;;;;;;;;5044478;28;20491;-60
2022/01/19 11:43:30;;;;;;;59.58;21.90;;;;;;;;;;5028199;28;20163;-60
2022/01/19 11:46:00;;;;;;;57.58;23.00;;;;;;;;;;5051045;28;20024;-60
2022/01/19 11:48:35;;;;;;;55.22;22.33;;;;;;;;;;5033509;28;20021;-59
2022/01/19 11:51:23;;;;;;;57.00;21.90;;;;;;;;;;5049549;28;20075;-60
2022/01/19 11:54:03;;;;;;;54.28;20.85;;;;;;;;;;5031055;28;20131;-59
2022/01/19 11:56:31;;;;;;;57.38;20.88;;;;;;;;;;5050054;28;20028;-62
2022/01/19 11:59:09;;;;;;;52.42;20.83;;;;;;;;;;5035231;28;20143;-60
2022/01/19 12:01:36;;;;;;;57.47;21.35;;;;;;;;;;5031099;28;20037;-60
2022/01/19 12:04:15;;;;;;;59.95;21.90;;;;;;;;;;5049944;28;20078;-60
2022/01/19 12:06:43;;;;;;;54.33;21.42;;;;;;;;;;5033920;28;20159;-60
2022/01/19 12:09:09;;;;;;;49.33;22.48;;;;;;;;;;5031257;28;20039;-59
2022/01/19 12:11:42;;;;;;;73.97;21.42;;;;;;;;;;5050838;28;20036;-59
2022/01/19 12:14:17;;;;;;;54.65;21.23;;;;;;;;;;5048451;28;20175;-60
2022/01/19 12:16:57;;;;;;;52.15;21.73;;;;;;;;;;5040835;28;20024;-60
2022/01/19 12:19:27;;;;;;;56.45;21.30;;;;;;;;;;5040507;28;20028;-60
2022/01/19 12:22:03;;;;;;;65.68;21.98;;;;;;;;;;5023917;28;20111;-60
2022/01/19 12:24:30;;;;;;;59.83;21.33;;;;;;;;;;5046249;28;20604;-60
2022/01/19 12:26:58;;;;;;;54.30;20.23;;;;;;;;;;5033212;28;20155;-60
2022/01/19 12:29:46;;;;;;;63.95;22.08;;;;;;;;;;5025962;28;20048;-60
2022/01/19 12:32:15;;;;;;;60.10;21.67;;;;;;;;;;4999519;28;20065;-60
2022/01/19 12:34:44;;;;;;;58.45;20.10;;;;;;;;;;5019459;28;20037;-60
2022/01/19 12:37:11;;;;;;;65.32;22.17;;;;;;;;;;5028174;28;20033;-59
2022/01/19 12:39:40;;;;;;;58.28;20.95;;;;;;;;;;5029776;28;20115;-59
2022/01/19 12:42:13;;;;;;;54.65;20.65;;;;;;;;;;5028581;28;20025;-60
2022/01/19 12:44:42;;;;;;;60.45;22.20;;;;;;;;;;5020168;28;20039;-59
2022/01/19 12:47:29;;;;;;;58.17;19.67;;;;;;;;;;5027408;28;20041;-61
2022/01/19 12:49:56;;;;;;;62.60;20.95;;;;;;;;;;5027680;28;20086;-61
2022/01/19 12:52:26;;;;;;;63.42;20.02;;;;;;;;;;5027221;28;20405;-59
2022/01/19 12:54:52;;;;;;;61.33;21.85;;;;;;;;;;5025503;28;20037;-59
2022/01/19 12:57:18;;;;;;;53.80;20.17;;;;;;;;;;5025316;28;20029;-59
2022/01/19 12:59:48;;;;;;;52.22;20.15;;;;;;;;;;5026044;28;20029;-60
2022/01/19 13:02:17;;;;;;;51.13;19.75;;;;;;;;;;5008086;28;20060;-60
2022/01/19 13:04:47;;;;;;;51.78;19.55;;;;;;;;;;5025010;28;20972;-60
2022/01/19 13:07:17;;;;;;;63.28;20.90;;;;;;;;;;5026315;28;20033;-59
2022/01/19 13:10:02;;;;;;;61.22;20.38;;;;;;;;;;5027855;28;20188;-59
2022/01/19 13:12:43;;;;;;;54.58;19.50;;;;;;;;;;5028526;28;20087;-59
2022/01/19 13:15:09;;;;;;;56.85;20.13;;;;;;;;;;5027160;28;20068;-59
2022/01/19 13:17:44;;;;;;;54.45;19.42;;;;;;;;;;5024609;28;20091;-59
2022/01/19 13:20:22;;;;;;;48.45;19.70;;;;;;;;;;5029991;28;20502;-59
2022/01/19 13:22:50;;;;;;;53.25;20.77;;;;;;;;;;5042108;28;20044;-62
2022/01/19 13:25:19;;;;;;;53.53;20.23;;;;;;;;;;5027222;28;20035;-59
2022/01/19 13:27:47;;;;;;;48.00;18.63;;;;;;;;;;5026317;28;20029;-58
2022/01/19 13:30:14;;;;;;;57.38;20.10;;;;;;;;;;5037793;28;20049;-59
2022/01/19 13:32:44;;;;;;;51.90;18.92;;;;;;;;;;5045360;28;20028;-60
2022/01/19 13:35:19;;;;;;;66.07;19.88;;;;;;;;;;5050179;28;20037;-58
2022/01/19 13:37:51;;;;;;;54.65;19.23;;;;;;;;;;5047265;28;20664;-60
2022/01/19 13:40:28;;;;;;;55.33;19.10;;;;;;;;;;5045936;28;20021;-58
2022/01/19 13:42:56;;;;;;;61.53;19.75;;;;;;;;;;5014474;28;20036;-60
2022/01/19 13:45:30;;;;;;;48.63;18.63;;;;;;;;;;5015089;28;20066;-59
2022/01/19 13:50:52;;;;;;;52.95;18.23;;;;;;;;;;5046921;28;20028;-58
2022/01/19 13:53:32;;;;;;;50.60;16.48;;;;;;;;;;5023973;28;20032;-58
2022/01/19 13:56:04;;;;;;;42.20;16.15;;;;;;;;;;5046477;28;20029;-60
2022/01/19 13:58:41;;;;;;;47.00;16.45;;;;;;;;;;5046734;28;20039;-59
2022/01/19 14:01:11;;;;;;;56.97;16.42;;;;;;;;;;5048038;28;20025;-59
2022/01/19 14:03:48;;;;;;;50.10;17.17;;;;;;;;;;5014449;28;21883;-59
2022/01/19 14:06:49;;;;;;;45.25;15.27;;;;;;;;;;5038054;28;20147;-59
2022/01/19 14:09:17;;;;;;;40.72;15.20;;;;;;;;;;5046189;28;20622;-59
2022/01/19 14:11:49;;;;;;;46.20;14.68;;;;;;;;;;5024962;28;20036;-60
2022/01/19 14:14:24;;;;;;;54.45;16.00;;;;;;;;;;5020721;28;20047;-59
2022/01/19 14:16:53;;;;;;;43.95;15.35;;;;;;;;;;5032695;28;20047;-60
2022/01/19 14:19:24;;;;;;;48.30;14.43;;;;;;;;;;5031368;28;20046;-57
2022/01/19 14:21:53;;;;;;;46.70;15.57;;;;;;;;;;5012433;28;20116;-59
2022/01/19 14:24:18;;;;;;;40.42;14.02;;;;;;;;;;5039746;28;20163;-58
2022/01/19 14:26:54;;;;;;;44.97;13.93;;;;;;;;;;5012294;28;20552;-59
2022/01/19 14:29:23;;;;;;;43.40;13.50;;;;;;;;;;5030429;28;21111;-58
2022/01/19 14:31:54;;;;;;;42.25;13.05;;;;;;;;;;5045812;28;20036;-59
2022/01/19 14:34:38;;;;;;;44.95;12.60;;;;;;;;;;5028868;28;20104;-58
2022/01/19 14:37:09;;;;;;;29.33;12.07;;;;;;;;;;5046068;28;20044;-60
2022/01/19 14:39:50;;;;;;;38.80;13.75;;;;;;;;;;5030079;28;20024;-59
2022/01/19 14:46:02;;;;;;;40.17;11.93;;;;;;;;;;5046324;28;20062;-58
2022/01/19 14:48:35;;;;;;;41.78;12.48;;;;;;;;;;5029165;28;20029;-58
2022/01/19 14:51:23;;;;;;;31.98;11.52;;;;;;;;;;5046232;28;20814;-59
2022/01/19 14:53:51;;;;;;;33.38;11.48;;;;;;;;;;5042694;28;20036;-59
2022/01/19 14:56:19;;;;;;;32.22;10.45;;;;;;;;;;5046420;28;22047;-59
2022/01/19 14:58:57;;;;;;;34.42;9.98;;;;;;;;;;5045463;28;20028;-58
2022/01/19 15:01:25;;;;;;;24.08;9.05;;;;;;;;;;5045168;28;20883;-57
2022/01/19 15:03:58;;;;;;;28.58;9.18;;;;;;;;;;5025222;28;20112;-59
2022/01/19 15:06:24;;;;;;;27.40;8.93;;;;;;;;;;5008677;28;20458;-59
2022/01/19 15:08:50;;;;;;;19.58;8.52;;;;;;;;;;5027780;28;20039;-58
2022/01/19 15:11:18;;;;;;;28.83;9.85;;;;;;;;;;5013897;28;20112;-57
2022/01/19 15:13:44;;;;;;;19.73;7.70;;;;;;;;;;5045593;28;20483;-58
2022/01/19 15:16:12;;;;;;;20.13;7.72;;;;;;;;;;5047784;28;20498;-59
2022/01/19 15:18:40;;;;;;;24.38;7.80;;;;;;;;;;5011630;28;20741;-59
2022/01/19 15:21:09;;;;;;;19.35;7.63;;;;;;;;;;5027067;28;20085;-58
2022/01/19 15:23:35;;;;;;;21.60;7.07;;;;;;;;;;5043054;28;20062;-58
2022/01/19 15:26:00;;;;;;;18.77;7.45;;;;;;;;;;5028701;28;20075;-58
2022/01/19 15:28:31;;;;;;;15.68;6.75;;;;;;;;;;5011377;28;20059;-58
2022/01/19 15:30:57;;;;;;;22.75;8.30;;;;;;;;;;5028518;28;20083;-58
2022/01/19 15:33:25;;;;;;;18.55;7.10;;;;;;;;;;5006626;28;20040;-58
2022/01/19 15:35:56;;;;;;;18.58;7.80;;;;;;;;;;5045278;28;20033;-57
2022/01/19 15:38:22;;;;;;;26.25;6.95;;;;;;;;;;5043998;28;20028;-57
2022/01/19 15:40:48;;;;;;;21.27;6.57;;;;;;;;;;5029971;28;20518;-57
2022/01/19 15:43:17;;;;;;;19.70;6.75;;;;;;;;;;5040958;28;20039;-57
2022/01/19 15:45:46;;;;;;;21.35;6.68;;;;;;;;;;5045379;28;20178;-57
2022/01/19 15:48:20;;;;;;;16.48;6.57;;;;;;;;;;5032436;28;20044;-58
2022/01/19 15:50:50;;;;;;;22.98;6.43;;;;;;;;;;5042343;28;20141;-58
2022/01/19 15:53:16;;;;;;;22.55;5.97;;;;;;;;;;5040612;28;20028;-57
2022/01/19 15:55:42;;;;;;;21.52;7.00;;;;;;;;;;5023992;28;20025;-58
2022/01/19 15:58:08;;;;;;;13.93;5.53;;;;;;;;;;5043776;28;20038;-58
2022/01/19 16:00:36;;;;;;;31.30;6.57;;;;;;;;;;5016586;28;21536;-59
2022/01/19 16:03:06;;;;;;;20.23;6.22;;;;;;;;;;5035039;28;20036;-58
2022/01/19 16:05:34;;;;;;;27.13;4.90;;;;;;;;;;5011862;28;20036;-57
2022/01/19 16:08:00;;;;;;;26.92;4.65;;;;;;;;;;5023509;28;20031;-59
2022/01/19 16:10:28;;;;;;;21.35;4.10;;;;;;;;;;5020687;28;20025;-58
2022/01/19 16:12:56;;;;;;;21.35;4.45;;;;;;;;;;5035019;28;20033;-58
2022/01/19 16:15:25;;;;;;;21.05;4.50;;;;;;;;;;5002011;28;20107;-57
2022/01/19 16:17:53;;;;;;;31.52;3.97;;;;;;;;;;5029620;28;20024;-57
2022/01/19 16:20:19;;;;;;;19.77;3.70;;;;;;;;;;5024516;28;20129;-58
2022/01/19 16:28:20;;;;;;;19.92;2.35;;;;;;;;;;5035280;28;20038;-58
2022/01/19 16:30:50;;;;;;;29.10;2.10;;;;;;;;;;5030574;28;20110;-57